Time;durP1;ratioP1;P1;durP2;ratioP2;P2;SDS_P1;SDS_P2;PMS_P1;PMS_P2;Temp;Humidity;BMP_temperature;BMP_pressure;BME280_temperature;BME280_humidity;BME280_pressure;Samples;Min_cycle;Max_cycle;Signal;HPM_P1;HPM_P2
2024/03/26 00:00:01;;;;;;;9.80;3.65;;;;;;;;;;5032015;28;20065;-81
2024/03/26 00:02:27;;;;;;;14.45;4.45;;;;;;;;;;5032028;28;20044;-82
2024/03/26 00:04:53;;;;;;;13.80;4.60;;;;;;;;;;5030790;28;20469;-81
2024/03/26 00:07:19;;;;;;;11.95;4.18;;;;;;;;;;5031980;28;20461;-81
2024/03/26 00:09:45;;;;;;;16.20;4.63;;;;;;;;;;5031741;28;20029;-81
2024/03/26 00:12:11;;;;;;;12.10;4.43;;;;;;;;;;5031900;28;20041;-80
2024/03/26 00:14:37;;;;;;;10.25;3.58;;;;;;;;;;5033221;28;20018;-81
2024/03/26 00:17:03;;;;;;;10.93;3.90;;;;;;;;;;5031676;28;20381;-81
2024/03/26 00:19:29;;;;;;;10.80;4.07;;;;;;;;;;5031829;28;20121;-81
2024/03/26 00:21:58;;;;;;;10.32;4.30;;;;;;;;;;5031248;28;20088;-81
2024/03/26 00:24:24;;;;;;;8.85;3.70;;;;;;;;;;5031671;28;20346;-81
2024/03/26 00:26:50;;;;;;;13.32;4.00;;;;;;;;;;5032695;28;20091;-80
2024/03/26 00:29:16;;;;;;;13.75;3.92;;;;;;;;;;5032617;28;20026;-80
2024/03/26 00:31:42;;;;;;;13.07;3.88;;;;;;;;;;5031609;28;20087;-80
2024/03/26 00:34:08;;;;;;;10.52;3.88;;;;;;;;;;5031394;28;20025;-80
2024/03/26 00:36:34;;;;;;;17.55;4.40;;;;;;;;;;5031454;28;20408;-80
2024/03/26 00:39:00;;;;;;;10.27;4.20;;;;;;;;;;5031149;28;20177;-79
2024/03/26 00:41:26;;;;;;;12.13;4.00;;;;;;;;;;5032708;28;20034;-80
2024/03/26 00:43:52;;;;;;;10.93;4.15;;;;;;;;;;5031179;28;20060;-80
2024/03/26 00:46:18;;;;;;;14.13;4.53;;;;;;;;;;5032830;28;20029;-79
2024/03/26 00:48:44;;;;;;;20.05;5.20;;;;;;;;;;5032338;28;20350;-79
2024/03/26 00:51:11;;;;;;;13.73;4.38;;;;;;;;;;5031410;28;20052;-77
2024/03/26 00:53:38;;;;;;;9.60;3.60;;;;;;;;;;5031080;28;20030;-78
2024/03/26 00:56:04;;;;;;;11.10;4.65;;;;;;;;;;5032320;28;20070;-80
2024/03/26 00:58:30;;;;;;;11.27;3.97;;;;;;;;;;5031063;28;20056;-79
2024/03/26 01:00:56;;;;;;;7.22;3.33;;;;;;;;;;5031867;28;20057;-80
2024/03/26 01:03:22;;;;;;;14.50;3.90;;;;;;;;;;5032099;28;20409;-80
2024/03/26 01:05:55;;;;;;;11.50;3.45;;;;;;;;;;5030867;28;20025;-79
2024/03/26 01:08:21;;;;;;;11.68;3.70;;;;;;;;;;5032304;28;20033;-79
2024/03/26 01:10:48;;;;;;;12.30;4.32;;;;;;;;;;5030814;28;20037;-80
2024/03/26 01:13:17;;;;;;;16.40;4.55;;;;;;;;;;5030976;28;20056;-79
2024/03/26 01:15:43;;;;;;;16.70;5.03;;;;;;;;;;5031778;28;20014;-79
2024/03/26 01:18:10;;;;;;;10.48;3.90;;;;;;;;;;5030571;28;20026;-79
2024/03/26 01:20:36;;;;;;;9.60;3.40;;;;;;;;;;5030644;28;20049;-79
2024/03/26 01:23:02;;;;;;;15.70;3.58;;;;;;;;;;5030712;28;20025;-79
2024/03/26 01:25:28;;;;;;;11.05;3.92;;;;;;;;;;5031943;28;20028;-78
2024/03/26 01:27:55;;;;;;;16.17;4.10;;;;;;;;;;5031883;28;20025;-78
2024/03/26 01:30:21;;;;;;;15.57;4.50;;;;;;;;;;5032078;28;20026;-78
2024/03/26 01:32:47;;;;;;;14.38;3.47;;;;;;;;;;5030678;28;20022;-77
2024/03/26 01:35:13;;;;;;;11.80;3.50;;;;;;;;;;5030732;28;20048;-78
2024/03/26 01:37:39;;;;;;;9.93;3.30;;;;;;;;;;5030747;28;20029;-78
2024/03/26 01:40:08;;;;;;;8.68;3.25;;;;;;;;;;5030410;28;20026;-82
2024/03/26 01:42:34;;;;;;;13.82;5.50;;;;;;;;;;5030623;28;20032;-80
2024/03/26 01:45:00;;;;;;;11.13;4.80;;;;;;;;;;5030311;28;20033;-81
2024/03/26 01:47:26;;;;;;;9.25;3.83;;;;;;;;;;5030539;28;20052;-80
2024/03/26 01:49:54;;;;;;;12.45;4.18;;;;;;;;;;5031631;28;20013;-80
2024/03/26 01:52:20;;;;;;;17.75;3.25;;;;;;;;;;5030644;28;20022;-79
2024/03/26 01:54:49;;;;;;;11.32;3.38;;;;;;;;;;5030555;28;20021;-79
2024/03/26 01:57:15;;;;;;;14.07;4.03;;;;;;;;;;5030598;28;20489;-79
2024/03/26 01:59:41;;;;;;;11.68;2.85;;;;;;;;;;5030580;28;20033;-80
2024/03/26 02:02:07;;;;;;;11.95;3.67;;;;;;;;;;5031541;28;20187;-80
2024/03/26 02:04:33;;;;;;;9.07;3.80;;;;;;;;;;5030494;28;20612;-80
2024/03/26 02:07:00;;;;;;;13.25;3.67;;;;;;;;;;5030254;28;20469;-80
2024/03/26 02:09:26;;;;;;;10.23;3.53;;;;;;;;;;5030478;28;20022;-83
2024/03/26 02:11:52;;;;;;;12.25;4.32;;;;;;;;;;5031617;28;20052;-82
2024/03/26 02:14:18;;;;;;;12.60;4.30;;;;;;;;;;5030567;28;20028;-83
2024/03/26 02:16:44;;;;;;;11.32;3.67;;;;;;;;;;5030485;28;20021;-80
2024/03/26 02:19:11;;;;;;;11.00;3.75;;;;;;;;;;5030229;28;20132;-80
2024/03/26 02:21:37;;;;;;;12.48;3.55;;;;;;;;;;5029904;28;20057;-79
2024/03/26 02:24:03;;;;;;;11.45;3.90;;;;;;;;;;5030061;28;20026;-78
2024/03/26 02:26:29;;;;;;;14.07;4.10;;;;;;;;;;5030424;28;20603;-79
2024/03/26 02:28:55;;;;;;;8.55;3.65;;;;;;;;;;5031917;28;20083;-79
2024/03/26 02:31:22;;;;;;;11.30;4.97;;;;;;;;;;5033924;28;20033;-78
2024/03/26 02:33:48;;;;;;;8.38;3.85;;;;;;;;;;5033863;28;20108;-78
2024/03/26 02:36:14;;;;;;;14.10;3.75;;;;;;;;;;5033718;28;20491;-79
2024/03/26 02:38:40;;;;;;;13.35;3.88;;;;;;;;;;5035536;28;20049;-80
2024/03/26 02:41:06;;;;;;;8.15;3.50;;;;;;;;;;5034990;28;20037;-80
2024/03/26 02:43:32;;;;;;;10.05;3.55;;;;;;;;;;5033720;28;20037;-79
2024/03/26 02:45:58;;;;;;;10.85;3.88;;;;;;;;;;5033336;28;20029;-79
2024/03/26 02:48:24;;;;;;;10.48;3.40;;;;;;;;;;5034979;28;20029;-79
2024/03/26 02:50:51;;;;;;;13.35;3.90;;;;;;;;;;5033533;28;20025;-79
2024/03/26 02:53:23;;;;;;;8.70;3.92;;;;;;;;;;5033288;28;20117;-79
2024/03/26 02:55:49;;;;;;;8.20;2.88;;;;;;;;;;5033423;28;20037;-79
2024/03/26 02:58:15;;;;;;;13.52;4.10;;;;;;;;;;5033210;28;20021;-79
2024/03/26 03:00:41;;;;;;;15.35;4.65;;;;;;;;;;5032957;28;20440;-80
2024/03/26 03:03:07;;;;;;;9.32;2.88;;;;;;;;;;5032799;28;20037;-79
2024/03/26 03:05:33;;;;;;;5.35;3.05;;;;;;;;;;5034322;28;20051;-79
2024/03/26 03:07:59;;;;;;;11.85;3.70;;;;;;;;;;5034056;28;20025;-79
2024/03/26 03:10:25;;;;;;;12.93;4.22;;;;;;;;;;5032985;28;20025;-80
2024/03/26 03:12:52;;;;;;;9.70;3.42;;;;;;;;;;5032995;28;20038;-80
2024/03/26 03:15:18;;;;;;;16.80;4.68;;;;;;;;;;5032695;28;20032;-79
2024/03/26 03:17:44;;;;;;;11.43;3.55;;;;;;;;;;5033050;28;20036;-79
2024/03/26 03:20:11;;;;;;;9.15;3.58;;;;;;;;;;5032541;28;20107;-79
2024/03/26 03:22:37;;;;;;;10.90;4.47;;;;;;;;;;5033076;28;20079;-80
2024/03/26 03:25:04;;;;;;;15.32;4.38;;;;;;;;;;5033978;28;20481;-80
2024/03/26 03:27:30;;;;;;;10.93;3.25;;;;;;;;;;5032932;28;20021;-81
2024/03/26 03:29:56;;;;;;;10.25;4.05;;;;;;;;;;5033668;28;20428;-80
2024/03/26 03:32:22;;;;;;;11.15;4.00;;;;;;;;;;5032800;28;20028;-80
2024/03/26 03:34:48;;;;;;;11.18;3.55;;;;;;;;;;5032814;28;20373;-80
2024/03/26 03:37:14;;;;;;;19.23;4.10;;;;;;;;;;5032450;28;20125;-80
2024/03/26 03:39:40;;;;;;;11.35;4.40;;;;;;;;;;5033442;28;20045;-79
2024/03/26 03:42:07;;;;;;;14.85;3.85;;;;;;;;;;5032333;28;20033;-83
2024/03/26 03:44:35;;;;;;;9.32;3.40;;;;;;;;;;5032456;28;20030;-82
2024/03/26 03:47:04;;;;;;;9.43;3.65;;;;;;;;;;5032371;28;20064;-81
2024/03/26 03:49:31;;;;;;;10.35;3.90;;;;;;;;;;5032636;28;20056;-82
2024/03/26 03:51:57;;;;;;;10.00;3.83;;;;;;;;;;5032522;28;20041;-81
2024/03/26 03:54:23;;;;;;;10.98;3.25;;;;;;;;;;5032527;28;20032;-80
2024/03/26 03:56:49;;;;;;;13.07;3.78;;;;;;;;;;5033793;28;20030;-80
2024/03/26 03:59:16;;;;;;;9.27;3.08;;;;;;;;;;5032073;28;20103;-81
2024/03/26 04:01:42;;;;;;;11.38;4.43;;;;;;;;;;5031988;28;20033;-82
2024/03/26 04:04:08;;;;;;;8.00;3.60;;;;;;;;;;5031923;28;20056;-80
2024/03/26 04:06:34;;;;;;;11.32;3.63;;;;;;;;;;5032027;28;20381;-80
2024/03/26 04:09:00;;;;;;;8.02;3.67;;;;;;;;;;5033132;28;20053;-81
2024/03/26 04:11:26;;;;;;;7.57;3.75;;;;;;;;;;5032172;28;20060;-81
2024/03/26 04:13:52;;;;;;;8.27;3.22;;;;;;;;;;5032115;28;20033;-81
2024/03/26 04:16:18;;;;;;;10.77;3.80;;;;;;;;;;5031910;28;20033;-81
2024/03/26 04:18:45;;;;;;;13.10;3.80;;;;;;;;;;5031976;28;20057;-81
2024/03/26 04:21:12;;;;;;;7.25;3.60;;;;;;;;;;5031211;28;20054;-80
2024/03/26 04:23:38;;;;;;;8.60;3.67;;;;;;;;;;5032897;28;20025;-80
2024/03/26 04:26:04;;;;;;;14.05;4.50;;;;;;;;;;5033214;28;20025;-80
2024/03/26 04:28:30;;;;;;;8.95;3.47;;;;;;;;;;5031701;28;20022;-79
2024/03/26 04:30:56;;;;;;;13.75;3.85;;;;;;;;;;5031620;28;20080;-78
2024/03/26 04:33:22;;;;;;;8.32;3.50;;;;;;;;;;5032834;28;20017;-79
2024/03/26 04:35:48;;;;;;;10.07;4.45;;;;;;;;;;5031814;28;20473;-79
2024/03/26 04:38:14;;;;;;;9.93;3.72;;;;;;;;;;5031521;28;20120;-79
2024/03/26 04:40:40;;;;;;;11.52;4.18;;;;;;;;;;5031501;28;20040;-79
2024/03/26 04:43:07;;;;;;;11.90;4.00;;;;;;;;;;5031319;28;20355;-79
2024/03/26 04:45:33;;;;;;;11.25;3.30;;;;;;;;;;5031458;28;20416;-79
2024/03/26 04:47:59;;;;;;;8.80;3.67;;;;;;;;;;5031611;28;20486;-80
2024/03/26 04:50:26;;;;;;;11.48;3.65;;;;;;;;;;5031343;28;20075;-80
2024/03/26 04:52:52;;;;;;;7.80;3.33;;;;;;;;;;5031535;28;20102;-80
2024/03/26 04:55:18;;;;;;;8.48;3.50;;;;;;;;;;5031688;28;20013;-81
2024/03/26 04:57:44;;;;;;;9.27;3.45;;;;;;;;;;5033013;28;20029;-81
2024/03/26 05:00:14;;;;;;;9.80;3.50;;;;;;;;;;5030916;28;20025;-81
2024/03/26 05:02:44;;;;;;;10.05;4.28;;;;;;;;;;5031254;28;20076;-81
2024/03/26 05:05:11;;;;;;;6.43;3.17;;;;;;;;;;5032059;28;20500;-81
2024/03/26 05:07:37;;;;;;;8.45;3.22;;;;;;;;;;5031136;28;20527;-80
2024/03/26 05:10:03;;;;;;;10.52;3.70;;;;;;;;;;5032480;28;20078;-80
2024/03/26 05:12:30;;;;;;;13.65;4.28;;;;;;;;;;5031290;28;20029;-81
2024/03/26 05:14:56;;;;;;;7.53;2.97;;;;;;;;;;5031362;28;20113;-81
2024/03/26 05:17:22;;;;;;;10.13;3.03;;;;;;;;;;5030869;28;20383;-82
2024/03/26 05:19:48;;;;;;;7.43;2.97;;;;;;;;;;5031122;28;20029;-82
2024/03/26 05:22:14;;;;;;;11.38;4.20;;;;;;;;;;5031967;28;20041;-82
2024/03/26 05:24:40;;;;;;;10.82;4.63;;;;;;;;;;5030672;28;20021;-80
2024/03/26 05:27:08;;;;;;;9.98;4.10;;;;;;;;;;5030761;28;20075;-82
2024/03/26 05:29:34;;;;;;;15.45;3.70;;;;;;;;;;5032276;28;20064;-81
2024/03/26 05:32:00;;;;;;;8.02;3.33;;;;;;;;;;5030829;28;20116;-79
2024/03/26 05:34:26;;;;;;;13.38;4.03;;;;;;;;;;5032004;28;20021;-80
2024/03/26 05:36:52;;;;;;;10.63;3.40;;;;;;;;;;5030710;28;20080;-80
2024/03/26 05:39:19;;;;;;;10.60;4.18;;;;;;;;;;5030723;28;20018;-81
2024/03/26 05:41:45;;;;;;;9.85;4.00;;;;;;;;;;5030630;28;20476;-82
2024/03/26 05:44:12;;;;;;;8.63;4.22;;;;;;;;;;5030786;28;20120;-81
2024/03/26 05:46:38;;;;;;;8.50;3.25;;;;;;;;;;5031529;28;20503;-82
2024/03/26 05:49:04;;;;;;;11.25;3.75;;;;;;;;;;5031690;28;20025;-82
2024/03/26 05:51:30;;;;;;;9.85;4.03;;;;;;;;;;5031401;28;20030;-82
2024/03/26 05:53:56;;;;;;;10.82;3.78;;;;;;;;;;5031642;28;20021;-82
2024/03/26 05:56:22;;;;;;;10.15;3.92;;;;;;;;;;5030851;28;20030;-82
2024/03/26 05:58:48;;;;;;;9.35;3.40;;;;;;;;;;5031099;28;20421;-81
2024/03/26 06:01:14;;;;;;;10.48;3.13;;;;;;;;;;5030719;28;20034;-82
2024/03/26 06:03:40;;;;;;;10.27;3.30;;;;;;;;;;5033959;28;20036;-82
2024/03/26 06:06:06;;;;;;;13.00;4.60;;;;;;;;;;5035922;28;20025;-82
2024/03/26 06:08:32;;;;;;;11.68;3.92;;;;;;;;;;5035989;28;20025;-79
2024/03/26 06:10:58;;;;;;;10.88;3.72;;;;;;;;;;5037042;28;20056;-80
2024/03/26 06:13:24;;;;;;;10.70;3.58;;;;;;;;;;5035288;28;20087;-79
2024/03/26 06:15:50;;;;;;;6.65;3.53;;;;;;;;;;5034396;28;20022;-80
2024/03/26 06:18:16;;;;;;;10.45;3.67;;;;;;;;;;5034070;28;20449;-78
2024/03/26 06:20:42;;;;;;;8.32;3.13;;;;;;;;;;5033926;28;20515;-79
2024/03/26 06:23:08;;;;;;;11.27;4.55;;;;;;;;;;5033964;28;20048;-79
2024/03/26 06:25:35;;;;;;;8.88;4.47;;;;;;;;;;5034031;28;20029;-79
2024/03/26 06:28:01;;;;;;;8.95;3.55;;;;;;;;;;5033986;28;20112;-80
2024/03/26 06:30:27;;;;;;;12.00;3.42;;;;;;;;;;5035114;28;20591;-79
2024/03/26 06:32:53;;;;;;;8.02;4.00;;;;;;;;;;5033841;28;20079;-79
2024/03/26 06:35:19;;;;;;;9.05;3.17;;;;;;;;;;5033666;28;20420;-79
2024/03/26 06:37:45;;;;;;;7.53;3.75;;;;;;;;;;5033918;28;20036;-78
2024/03/26 06:40:11;;;;;;;8.00;4.05;;;;;;;;;;5033571;28;20608;-79
2024/03/26 06:42:37;;;;;;;18.90;4.30;;;;;;;;;;5035405;28;20045;-79
2024/03/26 06:45:04;;;;;;;7.90;3.40;;;;;;;;;;5033694;28;20095;-79
2024/03/26 06:47:32;;;;;;;8.52;4.18;;;;;;;;;;5043650;28;20396;-79
2024/03/26 06:49:58;;;;;;;8.45;3.80;;;;;;;;;;5044265;28;20013;-77
2024/03/26 06:52:24;;;;;;;6.72;3.17;;;;;;;;;;5043219;28;20025;-79
2024/03/26 06:54:52;;;;;;;10.35;2.40;;;;;;;;;;5044012;28;20025;-79
2024/03/26 06:57:18;;;;;;;15.77;3.38;;;;;;;;;;5043595;28;20089;-78
2024/03/26 06:59:44;;;;;;;10.98;2.47;;;;;;;;;;5045888;28;20045;-75
2024/03/26 07:02:10;;;;;;;11.73;2.72;;;;;;;;;;5053955;28;20061;-80
2024/03/26 07:04:36;;;;;;;7.65;3.03;;;;;;;;;;5049392;28;20047;-78
2024/03/26 07:07:02;;;;;;;8.95;3.40;;;;;;;;;;5039459;28;20017;-78
2024/03/26 07:09:30;;;;;;;7.57;3.35;;;;;;;;;;5033191;28;20021;-78
2024/03/26 07:11:56;;;;;;;9.88;3.72;;;;;;;;;;5038442;28;20381;-79
2024/03/26 07:14:22;;;;;;;8.82;4.13;;;;;;;;;;5052215;28;20025;-79
2024/03/26 07:16:48;;;;;;;8.40;3.15;;;;;;;;;;5053371;28;20109;-79
2024/03/26 07:19:14;;;;;;;7.82;3.28;;;;;;;;;;5052612;28;20060;-78
2024/03/26 07:21:40;;;;;;;6.18;2.83;;;;;;;;;;5052194;28;20076;-78
2024/03/26 07:24:10;;;;;;;7.40;2.72;;;;;;;;;;5053850;28;20071;-79
2024/03/26 07:26:36;;;;;;;15.10;4.75;;;;;;;;;;5054073;28;20021;-79
2024/03/26 07:29:02;;;;;;;9.13;3.40;;;;;;;;;;5052977;28;20415;-79
2024/03/26 07:31:28;;;;;;;8.10;3.05;;;;;;;;;;5046856;28;20115;-79
2024/03/26 07:33:54;;;;;;;9.85;3.72;;;;;;;;;;5043418;28;20067;-79
2024/03/26 07:36:20;;;;;;;8.43;3.45;;;;;;;;;;5040579;28;20372;-79
2024/03/26 07:38:46;;;;;;;7.15;3.38;;;;;;;;;;5032864;28;20021;-79
2024/03/26 07:41:13;;;;;;;8.80;3.80;;;;;;;;;;5032528;28;20040;-79
2024/03/26 07:43:39;;;;;;;7.13;3.42;;;;;;;;;;5032318;28;20027;-78
2024/03/26 07:46:05;;;;;;;9.82;3.05;;;;;;;;;;5048367;28;20033;-79
2024/03/26 07:48:31;;;;;;;8.07;3.17;;;;;;;;;;5052166;28;20024;-79
2024/03/26 07:50:57;;;;;;;7.93;2.95;;;;;;;;;;5053837;28;20052;-79
2024/03/26 07:53:23;;;;;;;7.15;2.75;;;;;;;;;;5052226;28;20023;-79
2024/03/26 07:55:49;;;;;;;10.93;3.63;;;;;;;;;;5052894;28;20075;-79
2024/03/26 07:58:15;;;;;;;10.80;4.20;;;;;;;;;;5041803;28;20116;-79
2024/03/26 08:00:41;;;;;;;8.15;3.70;;;;;;;;;;5040713;28;20076;-81
2024/03/26 08:03:07;;;;;;;8.60;4.57;;;;;;;;;;5042830;28;20040;-79
2024/03/26 08:05:33;;;;;;;10.30;3.83;;;;;;;;;;5042610;28;20056;-80
2024/03/26 08:08:00;;;;;;;10.82;3.53;;;;;;;;;;5041358;28;20043;-79
2024/03/26 08:10:26;;;;;;;8.90;3.58;;;;;;;;;;5050018;28;20025;-78
2024/03/26 08:12:52;;;;;;;10.02;3.60;;;;;;;;;;5041846;28;20029;-79
2024/03/26 08:15:19;;;;;;;9.27;4.30;;;;;;;;;;5040735;28;20068;-79
2024/03/26 08:17:45;;;;;;;8.00;3.42;;;;;;;;;;5035648;28;20049;-79
2024/03/26 08:20:13;;;;;;;8.65;2.88;;;;;;;;;;5033233;28;20077;-79
2024/03/26 08:22:40;;;;;;;8.70;4.05;;;;;;;;;;5052744;28;20049;-78
2024/03/26 08:25:08;;;;;;;9.65;3.38;;;;;;;;;;5043969;28;20036;-78
2024/03/26 08:27:34;;;;;;;7.75;2.75;;;;;;;;;;5031001;28;20072;-77
2024/03/26 08:30:00;;;;;;;8.80;3.53;;;;;;;;;;5031692;28;20029;-78
2024/03/26 08:32:26;;;;;;;9.30;3.67;;;;;;;;;;5032326;28;20025;-78
2024/03/26 08:34:52;;;;;;;9.75;3.92;;;;;;;;;;5031120;28;20026;-77
2024/03/26 08:37:18;;;;;;;9.40;4.25;;;;;;;;;;5032308;28;20053;-78
2024/03/26 08:39:44;;;;;;;14.15;4.88;;;;;;;;;;5031410;28;20461;-78
2024/03/26 08:42:11;;;;;;;11.55;4.03;;;;;;;;;;5032301;28;20030;-78
2024/03/26 08:44:37;;;;;;;9.30;4.53;;;;;;;;;;5032138;28;20017;-78
2024/03/26 08:47:03;;;;;;;10.32;4.55;;;;;;;;;;5030751;28;20477;-78
2024/03/26 08:49:31;;;;;;;6.72;3.88;;;;;;;;;;5031029;28;20179;-78
2024/03/26 08:51:57;;;;;;;9.05;4.15;;;;;;;;;;5031186;28;20424;-78
2024/03/26 08:54:23;;;;;;;8.23;4.22;;;;;;;;;;5031097;28;20025;-78
2024/03/26 08:56:49;;;;;;;11.57;3.75;;;;;;;;;;5031161;28;20055;-78
2024/03/26 08:59:16;;;;;;;8.05;3.25;;;;;;;;;;5032559;28;20457;-78
2024/03/26 09:01:42;;;;;;;7.95;3.88;;;;;;;;;;5031102;28;20068;-78
2024/03/26 09:04:08;;;;;;;8.48;3.50;;;;;;;;;;5031151;28;20060;-78
2024/03/26 09:06:34;;;;;;;11.95;4.22;;;;;;;;;;5031821;28;20416;-78
2024/03/26 09:09:00;;;;;;;9.90;3.83;;;;;;;;;;5031052;28;20113;-78
2024/03/26 09:11:26;;;;;;;7.85;3.90;;;;;;;;;;5030831;28;20053;-78
2024/03/26 09:13:52;;;;;;;10.40;4.18;;;;;;;;;;5032650;28;20032;-78
2024/03/26 09:16:18;;;;;;;9.43;3.90;;;;;;;;;;5031803;28;20071;-78
2024/03/26 09:18:44;;;;;;;10.30;3.95;;;;;;;;;;5030831;28;20022;-78
2024/03/26 09:21:11;;;;;;;11.50;4.18;;;;;;;;;;5031721;28;20045;-78
2024/03/26 09:23:37;;;;;;;7.35;2.65;;;;;;;;;;5030767;28;20037;-78
2024/03/26 09:26:03;;;;;;;8.77;3.78;;;;;;;;;;5030966;28;20039;-78
2024/03/26 09:28:29;;;;;;;8.88;4.25;;;;;;;;;;5030744;28;20025;-78
2024/03/26 09:30:55;;;;;;;7.97;4.45;;;;;;;;;;5030948;28;20075;-77
2024/03/26 09:33:21;;;;;;;13.07;5.28;;;;;;;;;;5030587;28;20032;-78
2024/03/26 09:35:47;;;;;;;7.80;3.53;;;;;;;;;;5032190;28;20021;-77
2024/03/26 09:38:13;;;;;;;10.70;4.68;;;;;;;;;;5033130;28;20021;-78
2024/03/26 09:40:40;;;;;;;9.27;3.45;;;;;;;;;;5034479;28;20224;-78
2024/03/26 09:43:07;;;;;;;8.02;3.22;;;;;;;;;;5034775;28;20033;-77
2024/03/26 09:45:34;;;;;;;8.70;3.35;;;;;;;;;;5034461;28;20025;-78
2024/03/26 09:48:00;;;;;;;7.70;3.08;;;;;;;;;;5034758;28;20017;-78
2024/03/26 09:50:34;;;;;;;10.07;3.50;;;;;;;;;;5034494;28;20465;-77
2024/03/26 09:53:00;;;;;;;9.70;3.67;;;;;;;;;;5034239;28;20028;-77
2024/03/26 09:55:30;;;;;;;12.95;4.18;;;;;;;;;;5034351;28;20068;-77
2024/03/26 09:57:56;;;;;;;7.78;4.13;;;;;;;;;;5034191;28;20048;-77
2024/03/26 10:00:22;;;;;;;10.52;4.22;;;;;;;;;;5035203;28;20028;-77
2024/03/26 10:02:48;;;;;;;8.65;4.32;;;;;;;;;;5034094;28;20033;-80
2024/03/26 10:05:17;;;;;;;7.93;4.07;;;;;;;;;;5034439;28;20416;-78
2024/03/26 10:07:44;;;;;;;8.37;4.83;;;;;;;;;;5034222;28;20021;-78
2024/03/26 10:10:10;;;;;;;9.93;3.58;;;;;;;;;;5034314;28;20260;-77
2024/03/26 10:12:42;;;;;;;10.57;4.35;;;;;;;;;;5034969;28;20029;-77
2024/03/26 10:15:09;;;;;;;8.90;4.72;;;;;;;;;;5034112;28;20378;-77
2024/03/26 10:17:35;;;;;;;8.75;3.70;;;;;;;;;;5033909;28;20075;-77
2024/03/26 10:20:02;;;;;;;9.38;4.40;;;;;;;;;;5033536;28;20021;-77
2024/03/26 10:22:28;;;;;;;11.98;4.38;;;;;;;;;;5033810;28;20030;-78
2024/03/26 10:24:54;;;;;;;10.38;4.25;;;;;;;;;;5033971;28;20026;-77
2024/03/26 10:27:20;;;;;;;8.32;3.67;;;;;;;;;;5035274;28;20018;-77
2024/03/26 10:29:47;;;;;;;8.85;4.00;;;;;;;;;;5033600;28;20488;-76
2024/03/26 10:32:18;;;;;;;8.57;3.45;;;;;;;;;;5033853;28;20028;-76
2024/03/26 10:34:44;;;;;;;7.25;3.75;;;;;;;;;;5033571;28;20080;-78
2024/03/26 10:37:10;;;;;;;9.13;3.53;;;;;;;;;;5033764;28;20529;-78
2024/03/26 10:39:38;;;;;;;7.28;3.42;;;;;;;;;;5033659;28;20315;-78
2024/03/26 10:42:05;;;;;;;14.63;5.20;;;;;;;;;;5035046;28;20117;-78
2024/03/26 10:44:32;;;;;;;13.93;4.72;;;;;;;;;;5033411;28;20025;-78
2024/03/26 10:46:59;;;;;;;8.02;3.42;;;;;;;;;;5033293;28;20037;-78
2024/03/26 10:49:26;;;;;;;10.23;3.80;;;;;;;;;;5032484;28;20032;-77
2024/03/26 10:51:53;;;;;;;11.75;4.38;;;;;;;;;;5034783;28;20025;-78
2024/03/26 10:54:21;;;;;;;9.93;4.28;;;;;;;;;;5033388;28;20021;-77
2024/03/26 10:56:51;;;;;;;11.10;4.78;;;;;;;;;;5033133;28;20057;-77
2024/03/26 10:59:18;;;;;;;7.15;4.03;;;;;;;;;;5033261;28;20028;-78
2024/03/26 11:01:44;;;;;;;8.60;3.95;;;;;;;;;;5034287;28;20131;-78
2024/03/26 11:04:10;;;;;;;9.70;4.47;;;;;;;;;;5033364;28;20030;-78
2024/03/26 11:06:36;;;;;;;9.38;3.60;;;;;;;;;;5033022;28;20021;-78
2024/03/26 11:09:03;;;;;;;10.00;4.78;;;;;;;;;;5034530;28;20033;-77
2024/03/26 11:11:35;;;;;;;11.40;4.85;;;;;;;;;;5032956;28;20033;-77
2024/03/26 11:14:05;;;;;;;6.88;3.85;;;;;;;;;;5034469;28;20084;-78
2024/03/26 11:16:34;;;;;;;10.88;4.50;;;;;;;;;;5032837;28;20092;-77
2024/03/26 11:19:14;;;;;;;7.15;4.40;;;;;;;;;;5033007;28;20032;-77
2024/03/26 11:21:41;;;;;;;8.63;4.30;;;;;;;;;;5032507;28;20108;-76
2024/03/26 11:24:08;;;;;;;9.43;4.15;;;;;;;;;;5032922;28;20451;-78
2024/03/26 11:26:34;;;;;;;9.93;4.38;;;;;;;;;;5032650;28;20116;-78
2024/03/26 11:29:01;;;;;;;7.05;3.00;;;;;;;;;;5032907;28;20033;-78
2024/03/26 11:31:27;;;;;;;10.52;4.00;;;;;;;;;;5032572;28;20075;-78
2024/03/26 11:33:54;;;;;;;8.25;3.63;;;;;;;;;;5032768;28;20033;-77
2024/03/26 11:36:20;;;;;;;9.73;3.15;;;;;;;;;;5032794;28;20025;-77
2024/03/26 11:38:48;;;;;;;5.47;2.35;;;;;;;;;;5032488;28;20033;-77
2024/03/26 11:41:15;;;;;;;6.40;2.92;;;;;;;;;;5032567;28;20068;-76
2024/03/26 11:43:41;;;;;;;6.32;3.03;;;;;;;;;;5033802;28;20479;-77
2024/03/26 11:46:10;;;;;;;6.75;3.00;;;;;;;;;;5034026;28;20264;-77
2024/03/26 11:48:36;;;;;;;8.43;2.70;;;;;;;;;;5032216;28;20077;-77
2024/03/26 11:51:04;;;;;;;7.70;2.88;;;;;;;;;;5033563;28;20087;-77
2024/03/26 11:53:30;;;;;;;12.38;4.63;;;;;;;;;;5032197;28;20485;-77
2024/03/26 11:55:56;;;;;;;6.15;3.83;;;;;;;;;;5032353;28;20017;-77
2024/03/26 11:58:27;;;;;;;6.68;3.15;;;;;;;;;;5033602;28;20022;-78
2024/03/26 12:00:53;;;;;;;6.97;3.42;;;;;;;;;;5032080;28;20396;-77
2024/03/26 12:03:19;;;;;;;7.93;4.10;;;;;;;;;;5031993;28;20071;-78
2024/03/26 12:05:45;;;;;;;9.13;3.63;;;;;;;;;;5033051;28;20025;-77
2024/03/26 12:08:11;;;;;;;7.95;3.95;;;;;;;;;;5033565;28;20025;-77
2024/03/26 12:10:37;;;;;;;8.48;3.85;;;;;;;;;;5031812;28;20048;-78
2024/03/26 12:13:05;;;;;;;8.95;3.17;;;;;;;;;;5033076;28;20427;-79
2024/03/26 12:15:31;;;;;;;11.43;3.95;;;;;;;;;;5032883;28;20036;-78
2024/03/26 12:17:57;;;;;;;8.32;3.50;;;;;;;;;;5032023;28;20039;-78
2024/03/26 12:20:26;;;;;;;10.70;3.10;;;;;;;;;;5032748;28;20559;-78
2024/03/26 12:22:54;;;;;;;8.52;3.40;;;;;;;;;;5031702;28;20500;-78
2024/03/26 12:25:20;;;;;;;9.75;3.58;;;;;;;;;;5031783;28;20381;-77
2024/03/26 12:27:46;;;;;;;8.60;3.78;;;;;;;;;;5032489;28;20079;-78
2024/03/26 12:30:12;;;;;;;12.60;4.25;;;;;;;;;;5031699;28;20116;-78
2024/03/26 12:32:38;;;;;;;6.53;3.13;;;;;;;;;;5031333;28;20489;-78
2024/03/26 12:35:05;;;;;;;9.52;3.47;;;;;;;;;;5033315;28;20060;-78
2024/03/26 12:37:31;;;;;;;8.70;3.67;;;;;;;;;;5032708;28;20104;-78
2024/03/26 12:39:57;;;;;;;11.88;4.85;;;;;;;;;;5031433;28;20022;-78
2024/03/26 12:42:23;;;;;;;9.48;3.42;;;;;;;;;;5032523;28;20428;-78
2024/03/26 12:44:49;;;;;;;9.35;4.28;;;;;;;;;;5031213;28;20029;-78
2024/03/26 12:47:15;;;;;;;13.10;4.80;;;;;;;;;;5031288;28;20072;-77
2024/03/26 12:49:41;;;;;;;5.78;3.03;;;;;;;;;;5031219;28;20389;-78
2024/03/26 12:52:07;;;;;;;7.70;3.63;;;;;;;;;;5031297;28;20461;-78
2024/03/26 12:54:33;;;;;;;10.38;4.25;;;;;;;;;;5032509;28;20476;-78
2024/03/26 12:56:59;;;;;;;8.38;4.32;;;;;;;;;;5031019;28;20029;-78
2024/03/26 12:59:25;;;;;;;9.23;3.70;;;;;;;;;;5031150;28;20021;-78
2024/03/26 13:01:51;;;;;;;7.95;4.18;;;;;;;;;;5032197;28;20529;-78
2024/03/26 13:04:17;;;;;;;5.93;3.20;;;;;;;;;;5031158;28;20032;-77
2024/03/26 13:06:43;;;;;;;10.80;3.55;;;;;;;;;;5032168;28;20083;-78
2024/03/26 13:09:09;;;;;;;10.57;3.05;;;;;;;;;;5031064;28;20033;-78
2024/03/26 13:11:36;;;;;;;6.72;3.05;;;;;;;;;;5030555;28;20399;-78
2024/03/26 13:14:02;;;;;;;7.90;3.75;;;;;;;;;;5031894;28;20103;-78
2024/03/26 13:16:30;;;;;;;9.30;3.70;;;;;;;;;;5031079;28;20068;-78
2024/03/26 13:18:56;;;;;;;6.90;3.20;;;;;;;;;;5030700;28;20057;-78
2024/03/26 13:21:22;;;;;;;11.80;3.78;;;;;;;;;;5032063;28;20049;-78
2024/03/26 13:23:49;;;;;;;9.88;3.72;;;;;;;;;;5030763;28;20049;-78
2024/03/26 13:26:15;;;;;;;11.60;3.50;;;;;;;;;;5030683;28;20022;-77
2024/03/26 13:28:41;;;;;;;9.13;4.47;;;;;;;;;;5030519;28;20030;-77
2024/03/26 13:31:08;;;;;;;7.15;3.30;;;;;;;;;;5032102;28;20030;-78
2024/03/26 13:33:34;;;;;;;12.32;4.93;;;;;;;;;;5031823;28;20368;-76
2024/03/26 13:36:01;;;;;;;7.95;3.28;;;;;;;;;;5030866;28;20028;-77
2024/03/26 13:38:27;;;;;;;8.40;4.40;;;;;;;;;;5030853;28;20032;-77
2024/03/26 13:40:53;;;;;;;10.15;4.10;;;;;;;;;;5030377;28;20034;-77
2024/03/26 13:43:19;;;;;;;9.15;3.38;;;;;;;;;;5030849;28;20053;-78
2024/03/26 13:45:46;;;;;;;9.30;3.50;;;;;;;;;;5030331;28;20461;-77
2024/03/26 13:48:13;;;;;;;7.80;3.72;;;;;;;;;;5031993;28;20057;-76
2024/03/26 13:50:39;;;;;;;8.20;4.20;;;;;;;;;;5030327;28;20048;-76
2024/03/26 13:53:05;;;;;;;8.18;3.67;;;;;;;;;;5030440;28;20064;-77
2024/03/26 13:55:31;;;;;;;9.80;3.63;;;;;;;;;;5030646;28;20359;-77
2024/03/26 13:57:57;;;;;;;8.05;3.17;;;;;;;;;;5030399;28;20032;-78
2024/03/26 14:00:23;;;;;;;8.10;3.88;;;;;;;;;;5031474;28;20096;-77
2024/03/26 14:02:50;;;;;;;11.02;3.72;;;;;;;;;;5031624;28;20021;-77
2024/03/26 14:05:16;;;;;;;8.93;3.63;;;;;;;;;;5031767;28;20049;-77
2024/03/26 14:07:42;;;;;;;7.78;3.85;;;;;;;;;;5030104;28;20033;-77
2024/03/26 14:10:08;;;;;;;7.20;3.60;;;;;;;;;;5031482;28;20018;-78
2024/03/26 14:12:34;;;;;;;5.55;2.40;;;;;;;;;;5030294;28;20029;-78
2024/03/26 14:15:00;;;;;;;5.95;2.55;;;;;;;;;;5031335;28;20024;-78
2024/03/26 14:17:26;;;;;;;9.07;3.50;;;;;;;;;;5031232;28;20404;-78
2024/03/26 14:19:53;;;;;;;9.13;4.13;;;;;;;;;;5029856;28;20377;-78
2024/03/26 14:22:20;;;;;;;12.05;3.40;;;;;;;;;;5030196;28;20041;-78
2024/03/26 14:24:46;;;;;;;7.43;3.15;;;;;;;;;;5031520;28;20026;-77
2024/03/26 14:27:12;;;;;;;10.93;2.70;;;;;;;;;;5033984;28;20128;-78
2024/03/26 14:29:39;;;;;;;6.35;3.00;;;;;;;;;;5033740;28;20064;-78